createdAt,value
2019-03-02T00:01:02.317Z,17.60
2019-03-02T00:03:34.690Z,18.67
2019-03-02T00:06:02.695Z,20.10
2019-03-02T00:08:32.028Z,14.13
2019-03-02T00:11:01.437Z,17.17
2019-03-02T00:13:30.847Z,19.20
2019-03-02T00:16:00.888Z,19.10
2019-03-02T00:18:30.391Z,16.03
2019-03-02T00:20:59.696Z,20.60
2019-03-02T00:23:29.068Z,15.73
2019-03-02T00:25:58.388Z,20.93
2019-03-02T00:28:27.690Z,16.67
2019-03-02T00:30:57.806Z,22.10
2019-03-02T00:33:27.938Z,23.30
2019-03-02T00:35:57.313Z,19.40
2019-03-02T00:38:26.632Z,22.03
2019-03-02T00:40:56.048Z,15.70
2019-03-02T00:43:27.082Z,20.60
2019-03-02T00:45:57.482Z,19.30
2019-03-02T00:48:26.920Z,19.13
2019-03-02T00:50:56.280Z,20.10
2019-03-02T00:53:25.591Z,21.87
2019-03-02T00:55:55.002Z,21.87
2019-03-02T00:58:25.592Z,20.50
2019-03-02T01:00:55.503Z,21.40
2019-03-02T01:03:24.870Z,19.57
2019-03-02T01:05:54.240Z,19.30
2019-03-02T01:08:23.867Z,18.63
2019-03-02T01:10:54.804Z,19.90
2019-03-02T01:13:24.229Z,27.43
2019-03-02T01:15:53.665Z,25.10
2019-03-02T01:18:22.987Z,22.97
2019-03-02T01:20:52.335Z,25.20
2019-03-02T01:23:23.749Z,22.97
2019-03-02T01:25:52.764Z,23.23
2019-03-02T01:28:22.088Z,28.33
2019-03-02T01:30:52.065Z,23.97
2019-03-02T01:33:21.383Z,25.23
2019-03-02T01:35:53.938Z,22.73
2019-03-02T01:38:22.869Z,25.53
2019-03-02T01:40:52.207Z,24.50
2019-03-02T01:43:22.004Z,26.47
2019-03-02T01:45:51.419Z,25.37
2019-03-02T01:48:22.876Z,25.83
2019-03-02T01:50:51.885Z,25.43
2019-03-02T01:53:21.231Z,26.57
2019-03-02T01:55:50.633Z,27.03
2019-03-02T01:58:20.166Z,28.33
2019-03-02T02:00:50.016Z,27.97
2019-03-02T02:03:19.558Z,25.07
2019-03-02T02:05:48.995Z,28.13
2019-03-02T02:08:18.333Z,31.43
2019-03-02T02:10:47.631Z,24.87
2019-03-02T02:13:16.996Z,30.60
2019-03-02T02:15:46.346Z,25.27
2019-03-02T02:18:15.648Z,25.67
2019-03-02T02:20:46.860Z,26.73
2019-03-02T02:23:16.033Z,29.97
2019-03-02T02:25:45.361Z,27.20
2019-03-02T02:28:14.643Z,27.43
2019-03-02T02:30:44.105Z,34.83
2019-03-02T02:33:13.518Z,26.93
2019-03-02T02:35:42.819Z,28.90
2019-03-02T02:38:16.049Z,28.20
2019-03-02T02:40:43.288Z,30.40
2019-03-02T02:43:20.485Z,30.60
2019-03-02T02:45:43.749Z,29.43
2019-03-02T02:48:13.067Z,33.23
2019-03-02T02:50:43.084Z,29.27
2019-03-02T02:53:12.561Z,31.47
2019-03-02T02:55:42.273Z,34.40
2019-03-02T02:58:12.603Z,31.00
2019-03-02T03:00:42.717Z,30.27
2019-03-02T03:03:15.879Z,33.40
2019-03-02T03:05:43.068Z,35.37
2019-03-02T03:08:12.404Z,36.43
2019-03-02T03:10:42.890Z,35.70
2019-03-02T03:13:12.338Z,32.70
2019-03-02T03:15:46.538Z,35.63
2019-03-02T03:18:15.936Z,33.30
2019-03-02T03:20:48.934Z,35.57
2019-03-02T03:23:20.246Z,38.23
2019-03-02T03:25:56.141Z,37.37
2019-03-02T03:28:18.524Z,34.70
2019-03-02T03:30:48.123Z,36.77
2019-03-02T03:33:17.435Z,37.27
2019-03-02T03:35:46.828Z,38.57
2019-03-02T03:38:16.275Z,39.10
2019-03-02T03:40:45.633Z,42.03
2019-03-02T03:43:15.023Z,40.17
2019-03-02T03:45:45.045Z,40.60
2019-03-02T03:48:17.950Z,40.80
2019-03-02T03:50:48.078Z,45.13
2019-03-02T03:53:16.651Z,44.27
2019-03-02T03:55:45.935Z,47.67
2019-03-02T03:58:15.319Z,46.97
2019-03-02T04:00:44.599Z,44.07
2019-03-02T04:03:14.998Z,47.20
2019-03-02T04:05:47.091Z,42.53
2019-03-02T04:08:15.543Z,48.77
2019-03-02T04:10:44.833Z,49.60
2019-03-02T04:13:14.161Z,47.23
2019-03-02T04:15:43.635Z,46.70
2019-03-02T04:18:50.126Z,52.10
2019-03-02T04:21:23.449Z,50.67
2019-03-02T04:27:17.755Z,52.63
2019-03-02T04:29:49.915Z,53.77
2019-03-02T04:32:18.158Z,58.73
2019-03-02T04:34:47.486Z,55.10
2019-03-02T04:37:20.280Z,56.47
2019-03-02T04:39:49.986Z,58.57
2019-03-02T04:42:18.985Z,48.80
2019-03-02T04:44:48.667Z,56.73
2019-03-02T04:47:18.027Z,62.17
2019-03-02T04:49:51.082Z,55.60
2019-03-02T04:52:18.572Z,57.57
2019-03-02T04:54:47.936Z,61.17
2019-03-02T04:57:17.364Z,58.77
2019-03-02T04:59:46.696Z,66.17
2019-03-02T05:02:16.756Z,65.13
2019-03-02T05:04:47.191Z,62.60
2019-03-02T05:07:16.603Z,64.80
2019-03-02T05:09:48.647Z,68.30
2019-03-02T05:12:17.056Z,64.53
2019-03-02T05:14:46.469Z,69.60
2019-03-02T05:17:15.808Z,75.83
2019-03-02T05:19:45.203Z,67.63
2019-03-02T05:22:15.479Z,72.97
2019-03-02T05:24:45.657Z,67.87
2019-03-02T05:27:14.983Z,84.70
2019-03-02T05:29:44.316Z,72.13
2019-03-02T05:32:15.986Z,67.87
2019-03-02T05:34:44.735Z,65.97
2019-03-02T05:37:14.056Z,79.90
2019-03-02T05:39:43.391Z,68.53
2019-03-02T05:42:13.608Z,81.87
2019-03-02T05:44:43.805Z,74.90
2019-03-02T05:47:13.238Z,72.50
2019-03-02T05:49:42.567Z,72.03
2019-03-02T05:52:14.479Z,73.73
2019-03-02T05:54:43.030Z,70.83
2019-03-02T05:57:12.433Z,73.13
2019-03-02T05:59:41.737Z,72.10
2019-03-02T06:02:13.968Z,94.73
2019-03-02T06:04:42.206Z,71.73
2019-03-02T06:07:11.547Z,73.97
2019-03-02T06:09:40.846Z,81.40
2019-03-02T06:12:11.916Z,82.80
2019-03-02T06:14:41.209Z,79.83
2019-03-02T06:17:10.573Z,75.87
2019-03-02T06:19:39.922Z,74.67
2019-03-02T06:22:09.298Z,83.27
2019-03-02T06:24:41.033Z,84.07
2019-03-02T06:27:10.937Z,75.30
2019-03-02T06:29:40.732Z,78.07
2019-03-02T06:32:10.109Z,76.67
2019-03-02T06:34:39.439Z,80.63
2019-03-02T06:37:08.811Z,79.07
2019-03-02T06:39:40.996Z,72.73
2019-03-02T06:42:09.820Z,66.63
2019-03-02T06:44:40.285Z,74.17
2019-03-02T06:47:09.615Z,67.80
2019-03-02T06:49:39.107Z,67.03
2019-03-02T06:52:08.420Z,58.43
2019-03-02T06:54:37.778Z,58.90
2019-03-02T06:57:07.120Z,64.57
2019-03-02T06:59:39.309Z,64.87
2019-03-02T07:02:07.613Z,64.90
2019-03-02T07:04:36.977Z,62.73
2019-03-02T07:07:06.417Z,68.67
2019-03-02T07:09:35.772Z,62.30
2019-03-02T07:12:05.913Z,71.13
2019-03-02T07:14:36.290Z,66.63
2019-03-02T07:17:05.716Z,69.07
2019-03-02T07:19:51.856Z,67.10
2019-03-02T07:22:22.091Z,66.37
2019-03-02T07:24:51.350Z,62.93
2019-03-02T07:27:20.760Z,61.07
2019-03-02T07:29:53.664Z,56.00
2019-03-02T07:32:21.378Z,69.27
2019-03-02T07:34:50.875Z,67.90
2019-03-02T07:37:20.236Z,64.90
2019-03-02T07:39:49.706Z,58.27
2019-03-02T07:42:19.037Z,67.07
2019-03-02T07:44:48.484Z,62.87
2019-03-02T07:47:20.617Z,57.00
2019-03-02T07:49:49.856Z,58.33
2019-03-02T07:52:20.079Z,55.03
2019-03-02T07:54:58.140Z,49.47
2019-03-02T07:57:20.444Z,53.83
2019-03-02T07:59:49.811Z,48.07
2019-03-02T08:02:19.214Z,57.50
2019-03-02T08:04:48.554Z,52.30
2019-03-02T08:07:17.912Z,50.73
2019-03-02T08:09:47.337Z,50.77
2019-03-02T08:12:16.717Z,55.93
2019-03-02T08:14:47.842Z,51.60
2019-03-02T08:17:17.212Z,57.47
2019-03-02T08:19:48.571Z,54.53
2019-03-02T08:22:17.632Z,46.40
2019-03-02T08:24:47.046Z,45.83
2019-03-02T08:27:16.471Z,47.00
2019-03-02T08:29:45.913Z,48.83
2019-03-02T08:32:17.707Z,46.33
2019-03-02T08:34:47.091Z,45.43
2019-03-02T08:37:16.625Z,42.90
2019-03-02T08:39:46.539Z,51.63
2019-03-02T08:42:17.254Z,41.70
2019-03-02T08:44:46.653Z,47.30
2019-03-02T08:47:16.093Z,44.27
2019-03-02T08:49:45.419Z,43.53
2019-03-02T08:52:14.817Z,45.00
2019-03-02T08:54:44.209Z,42.53
2019-03-02T08:57:13.603Z,45.20
2019-03-02T08:59:42.986Z,48.33
2019-03-02T09:02:12.452Z,53.30
2019-03-02T09:04:41.787Z,48.37
2019-03-02T09:07:11.412Z,47.77
2019-03-02T09:09:41.483Z,45.40
2019-03-02T09:12:10.910Z,42.20
2019-03-02T09:14:40.247Z,41.53
2019-03-02T09:17:09.695Z,43.07
2019-03-02T09:19:39.131Z,43.30
2019-03-02T09:22:08.512Z,42.17
2019-03-02T09:24:37.953Z,38.73
2019-03-02T09:27:34.924Z,39.07
2019-03-02T09:30:08.805Z,43.03
2019-03-02T09:32:38.148Z,39.97
2019-03-02T09:35:07.922Z,43.77
2019-03-02T09:37:37.337Z,40.70
2019-03-02T09:40:10.116Z,41.57
2019-03-02T09:42:40.497Z,42.37
2019-03-02T09:45:11.528Z,40.63
2019-03-02T09:47:43.916Z,41.10
2019-03-02T09:50:14.426Z,39.20
2019-03-02T09:52:43.886Z,37.63
2019-03-02T09:55:14.768Z,41.03
2019-03-02T09:57:47.529Z,36.43
2019-03-02T10:00:24.070Z,38.87
2019-03-02T10:02:52.134Z,38.00
2019-03-02T10:05:21.565Z,37.93
2019-03-02T10:07:50.938Z,38.23
2019-03-02T10:10:21.045Z,36.43
2019-03-02T10:12:53.110Z,36.37
2019-03-02T10:15:22.460Z,38.07
2019-03-02T10:17:51.820Z,39.67
2019-03-02T10:20:21.241Z,37.60
2019-03-02T10:22:50.612Z,39.63
2019-03-02T10:25:20.046Z,33.87
2019-03-02T10:27:49.358Z,39.63
2019-03-02T10:30:22.159Z,32.73
2019-03-02T10:32:52.040Z,37.50
2019-03-02T10:35:21.488Z,37.83
2019-03-02T10:37:50.988Z,36.80
2019-03-02T10:40:20.375Z,45.07
2019-03-02T10:42:49.795Z,41.13
2019-03-02T10:45:19.200Z,33.13
2019-03-02T10:47:48.924Z,34.07
2019-03-02T10:50:23.553Z,33.13
2019-03-02T10:52:51.327Z,32.00
2019-03-02T10:55:21.113Z,32.73
2019-03-02T10:58:18.655Z,36.73
2019-03-02T11:00:48.038Z,36.40
2019-03-02T11:03:17.470Z,36.60
2019-03-02T11:06:15.039Z,38.37
2019-03-02T11:09:04.149Z,35.47
2019-03-02T11:11:58.144Z,30.37
2019-03-02T11:14:46.421Z,37.13
2019-03-02T11:17:55.707Z,33.43
2019-03-02T11:20:45.591Z,34.60
2019-03-02T11:23:32.692Z,37.33
2019-03-02T11:26:23.752Z,32.37
2019-03-02T11:29:17.766Z,31.17
2019-03-02T11:32:03.290Z,32.87
2019-03-02T11:34:53.932Z,32.77
2019-03-02T11:37:45.257Z,36.10
2019-03-02T11:40:48.638Z,36.20
2019-03-02T11:43:52.273Z,35.57
2019-03-02T11:47:20.873Z,38.13
2019-03-02T11:56:11.214Z,31.80
2019-03-02T11:58:58.447Z,27.13
2019-03-02T12:01:52.639Z,31.17
2019-03-02T12:04:44.916Z,27.07
2019-03-02T12:07:28.019Z,32.47
2019-03-02T12:10:34.907Z,31.43
2019-03-02T12:13:23.428Z,30.87
2019-03-02T12:19:32.325Z,30.03
2019-03-02T12:22:09.556Z,32.30
2019-03-02T12:24:58.485Z,30.67
2019-03-02T12:31:23.684Z,26.50
2019-03-02T12:37:35.416Z,29.87
2019-03-02T12:40:27.596Z,32.93
2019-03-02T12:43:08.669Z,30.03
2019-03-02T12:45:54.536Z,30.57
2019-03-02T12:48:57.555Z,30.17
2019-03-02T12:51:48.939Z,33.57
2019-03-02T12:54:39.229Z,31.27
2019-03-02T12:57:16.663Z,27.37
2019-03-02T13:00:00.521Z,31.83
2019-03-02T13:02:47.982Z,27.07
2019-03-02T13:05:37.700Z,29.90
2019-03-02T13:08:48.751Z,26.73
2019-03-02T13:11:49.098Z,24.23
2019-03-02T13:14:32.238Z,28.17
2019-03-02T13:17:09.793Z,22.87
2019-03-02T13:19:59.001Z,25.13
2019-03-02T13:25:44.289Z,23.80
2019-03-02T13:28:25.002Z,25.60
2019-03-02T13:31:14.230Z,25.80
2019-03-02T13:34:01.286Z,21.77
2019-03-02T13:37:35.602Z,19.07
2019-03-02T13:40:13.371Z,20.67
2019-03-02T13:43:04.513Z,20.43
2019-03-02T13:45:58.919Z,26.20
2019-03-02T13:49:09.795Z,23.63
2019-03-02T13:52:10.276Z,22.40
2019-03-02T13:54:59.245Z,23.27
2019-03-02T13:57:50.925Z,20.30
2019-03-02T14:00:33.033Z,19.03
2019-03-02T14:03:16.903Z,20.00
2019-03-02T14:06:17.776Z,19.87
2019-03-02T14:08:52.005Z,23.27
2019-03-02T14:11:39.777Z,18.03
2019-03-02T14:14:27.820Z,19.77
2019-03-02T14:17:32.370Z,17.57
2019-03-02T14:20:49.229Z,15.17
2019-03-02T14:23:34.986Z,24.03
2019-03-02T14:26:13.559Z,16.20
2019-03-02T14:29:08.080Z,20.70
2019-03-02T14:32:00.735Z,14.90
2019-03-02T14:34:49.214Z,15.57
2019-03-02T14:37:32.378Z,17.13
2019-03-02T14:40:29.444Z,15.77
2019-03-02T14:43:32.891Z,13.07
2019-03-02T14:46:33.319Z,18.77
2019-03-02T14:49:20.358Z,12.67
2019-03-02T14:52:23.515Z,17.97
2019-03-02T14:55:07.262Z,17.33
2019-03-02T14:57:56.749Z,16.57
2019-03-02T15:01:02.760Z,15.00
2019-03-02T15:03:50.561Z,24.83
2019-03-02T15:06:31.621Z,18.30
2019-03-02T15:09:08.801Z,22.80
2019-03-02T15:11:58.582Z,14.80
2019-03-02T15:14:42.912Z,19.00
2019-03-02T15:17:19.716Z,21.17
2019-03-02T15:20:06.511Z,19.17
2019-03-02T15:22:51.889Z,15.63
2019-03-02T15:25:40.234Z,17.30
2019-03-02T15:28:15.365Z,15.13
2019-03-02T15:30:52.140Z,19.57
2019-03-02T15:33:33.881Z,13.30
2019-03-02T15:36:16.930Z,15.27
2019-03-02T15:39:03.621Z,18.73
2019-03-02T15:41:51.988Z,13.40
2019-03-02T15:44:42.950Z,17.80
2019-03-02T15:47:30.342Z,15.33
2019-03-02T15:50:09.097Z,18.00
2019-03-02T15:53:03.387Z,18.23
2019-03-02T15:55:41.210Z,17.80
2019-03-02T15:58:59.801Z,18.83
2019-03-02T16:01:55.124Z,16.57
2019-03-02T16:04:36.894Z,24.67
2019-03-02T16:07:22.237Z,20.27
2019-03-02T16:10:22.761Z,16.43
2019-03-02T16:13:16.946Z,17.10
2019-03-02T16:16:13.013Z,24.40
2019-03-02T16:19:12.839Z,18.77
2019-03-02T16:21:57.163Z,18.07
2019-03-02T16:25:04.951Z,17.50
2019-03-02T16:27:48.323Z,21.30
2019-03-02T16:30:36.633Z,18.07
2019-03-02T16:33:23.359Z,20.20
2019-03-02T16:36:14.423Z,15.70
2019-03-02T16:39:06.893Z,15.43
2019-03-02T16:42:07.090Z,22.60
2019-03-02T16:44:54.676Z,19.27
2019-03-02T16:47:58.181Z,20.07
2019-03-02T16:50:50.025Z,18.17
2019-03-02T16:53:41.002Z,18.43
2019-03-02T16:56:31.657Z,25.90
2019-03-02T16:59:18.392Z,17.50
2019-03-02T17:02:05.072Z,16.80
2019-03-02T17:04:51.341Z,17.90
2019-03-02T17:07:58.802Z,18.27
2019-03-02T17:10:49.723Z,12.10
2019-03-02T17:13:33.560Z,16.80
2019-03-02T17:16:18.332Z,12.73
2019-03-02T17:18:54.573Z,11.40
2019-03-02T17:21:41.279Z,11.00
2019-03-02T17:24:29.661Z,10.10
2019-03-02T17:27:17.742Z,10.37
2019-03-02T17:29:54.312Z,11.93
2019-03-02T17:32:28.457Z,12.37
2019-03-02T17:35:21.011Z,13.33
2019-03-02T17:38:08.051Z,12.57
2019-03-02T17:40:56.316Z,16.00
2019-03-02T17:43:50.791Z,13.97
2019-03-02T17:46:37.760Z,14.10
2019-03-02T17:49:17.425Z,8.57
2019-03-02T17:52:15.499Z,10.33
2019-03-02T17:55:15.624Z,8.93
2019-03-02T17:57:56.188Z,8.87
2019-03-02T18:00:57.027Z,10.43
2019-03-02T18:03:39.198Z,8.57
2019-03-02T18:06:30.332Z,10.50
2019-03-02T18:09:17.066Z,9.47
2019-03-02T18:12:13.458Z,11.37
2019-03-02T18:15:01.726Z,9.97
2019-03-02T18:18:04.991Z,8.50
2019-03-02T18:20:37.427Z,7.73
2019-03-02T18:23:06.983Z,9.37
2019-03-02T18:25:36.398Z,10.60
2019-03-02T18:28:05.806Z,9.93
2019-03-02T18:30:38.750Z,7.73
2019-03-02T18:33:19.213Z,9.60
2019-03-02T18:35:48.658Z,8.87
2019-03-02T18:38:18.167Z,9.37
2019-03-02T18:40:47.496Z,9.07
2019-03-02T18:43:16.983Z,8.87
2019-03-02T18:45:46.457Z,10.20
2019-03-02T18:48:35.368Z,9.53
2019-03-02T18:51:15.108Z,11.10
2019-03-02T18:53:44.522Z,14.60
2019-03-02T18:56:13.976Z,11.50
2019-03-02T18:58:43.520Z,14.27
2019-03-02T19:01:13.392Z,12.37
2019-03-02T19:03:42.780Z,15.50
2019-03-02T19:06:12.308Z,13.93
2019-03-02T19:08:41.733Z,16.97
2019-03-02T19:11:11.174Z,13.37
2019-03-02T19:13:40.729Z,14.13
2019-03-02T19:16:11.747Z,13.33
2019-03-02T19:18:41.276Z,14.70
2019-03-02T19:21:10.640Z,15.53
2019-03-02T19:23:40.262Z,17.00
2019-03-02T19:26:10.715Z,15.13
2019-03-02T19:28:40.599Z,15.07
2019-03-02T19:31:10.044Z,16.27
2019-03-02T19:33:39.470Z,16.93
2019-03-02T19:36:08.845Z,14.63
2019-03-02T19:38:38.266Z,16.37
2019-03-02T19:41:07.751Z,15.30
2019-03-02T19:43:37.217Z,18.23
2019-03-02T19:46:06.821Z,14.77
2019-03-02T19:48:36.249Z,16.50
2019-03-02T19:51:05.658Z,17.13
2019-03-02T19:53:35.209Z,15.07
2019-03-02T19:56:04.627Z,20.00
2019-03-02T19:58:34.071Z,16.37
2019-03-02T20:01:03.590Z,18.00
2019-03-02T20:03:33.044Z,15.00
2019-03-02T20:06:02.402Z,16.20
2019-03-02T20:08:31.899Z,14.80
2019-03-02T20:11:01.393Z,15.90
2019-03-02T20:13:30.773Z,16.37
2019-03-02T20:16:00.172Z,15.23
2019-03-02T20:18:29.531Z,14.53
2019-03-02T20:20:58.946Z,14.83
2019-03-02T20:23:36.970Z,15.23
2019-03-02T20:25:59.394Z,13.53
2019-03-02T20:28:28.721Z,16.03
2019-03-02T20:30:58.135Z,13.70
2019-03-02T20:33:27.488Z,16.63
2019-03-02T20:35:56.893Z,14.87
2019-03-02T20:38:26.294Z,14.57
2019-03-02T20:45:05.261Z,13.70
2019-03-02T20:47:34.649Z,16.60
2019-03-02T20:50:04.309Z,13.73
2019-03-02T20:52:33.686Z,17.83
2019-03-02T20:55:03.030Z,18.60
2019-03-02T20:57:36.836Z,16.17
2019-03-02T21:00:08.457Z,15.33
2019-03-02T21:02:37.903Z,13.57
2019-03-02T21:05:09.229Z,18.27
2019-03-02T21:07:38.650Z,13.50
2019-03-02T21:10:09.954Z,17.70
2019-03-02T21:12:39.310Z,16.20
2019-03-02T21:15:12.693Z,14.90
2019-03-02T21:17:42.167Z,13.23
2019-03-02T21:20:12.442Z,15.93
2019-03-02T21:22:41.917Z,15.80
2019-03-02T21:25:11.630Z,14.87
2019-03-02T21:27:40.993Z,18.57
2019-03-02T21:30:12.270Z,18.77
2019-03-02T21:32:41.721Z,12.90
2019-03-02T21:35:11.416Z,17.27
2019-03-02T21:37:40.796Z,16.13
2019-03-02T21:40:18.258Z,14.50
2019-03-02T21:42:47.732Z,16.70
2019-03-02T21:45:18.136Z,17.93
2019-03-02T21:47:47.995Z,17.67
2019-03-02T21:50:19.286Z,17.17
2019-03-02T21:52:48.660Z,16.37
2019-03-02T21:55:18.040Z,15.90
2019-03-02T21:57:47.385Z,17.53
2019-03-02T22:00:18.846Z,21.70
2019-03-02T22:02:48.184Z,17.27
2019-03-02T22:05:17.566Z,22.07
2019-03-02T22:07:46.949Z,19.77
2019-03-02T22:10:19.433Z,20.73
2019-03-02T22:12:48.773Z,17.53
2019-03-02T22:15:18.160Z,19.97
2019-03-02T22:17:49.295Z,19.07
2019-03-02T22:20:18.741Z,17.57
2019-03-02T22:22:48.061Z,20.00
2019-03-02T22:25:17.936Z,20.30
2019-03-02T22:27:47.394Z,17.13
2019-03-02T22:30:18.995Z,16.30
2019-03-02T22:32:48.338Z,15.07
2019-03-02T22:35:17.873Z,15.90
2019-03-02T22:37:47.233Z,18.37
2019-03-02T22:40:18.255Z,17.83
2019-03-02T22:42:47.638Z,18.80
2019-03-02T22:45:17.079Z,17.03
2019-03-02T22:47:46.373Z,14.00
2019-03-02T22:50:17.742Z,17.17
2019-03-02T22:52:47.084Z,12.57
2019-03-02T22:55:17.275Z,17.20
2019-03-02T22:57:48.562Z,12.77
2019-03-02T23:00:45.478Z,13.53
2019-03-02T23:03:13.263Z,16.23
2019-03-02T23:05:42.595Z,14.90
2019-03-02T23:08:11.997Z,14.80
2019-03-02T23:10:41.297Z,14.20
2019-03-02T23:13:10.627Z,16.50
2019-03-02T23:15:39.968Z,14.63
2019-03-02T23:18:09.295Z,14.80
2019-03-02T23:20:38.654Z,12.27
2019-03-02T23:23:08.043Z,10.17
2019-03-02T23:25:37.336Z,12.50
2019-03-02T23:28:06.679Z,15.20
2019-03-02T23:30:35.997Z,16.90
2019-03-02T23:33:05.354Z,12.77
2019-03-02T23:35:34.702Z,11.10
2019-03-02T23:38:04.837Z,12.47
2019-03-02T23:40:34.225Z,13.60
2019-03-02T23:43:03.590Z,13.53
2019-03-02T23:45:32.901Z,13.67
2019-03-02T23:48:02.270Z,16.00
2019-03-02T23:50:31.695Z,15.40
2019-03-02T23:53:01.042Z,14.17
2019-03-02T23:55:30.427Z,15.30
2019-03-02T23:57:59.819Z,12.67
